createdAt,value
2018-10-11T00:00:41.089Z,22.57
2018-10-11T00:03:08.737Z,22.73
2018-10-11T00:05:36.375Z,25.23
2018-10-11T00:08:03.751Z,23.60
2018-10-11T00:10:31.153Z,21.00
2018-10-11T00:12:58.529Z,26.93
2018-10-11T00:15:25.881Z,23.53
2018-10-11T00:17:53.301Z,23.27
2018-10-11T00:20:20.645Z,24.43
2018-10-11T00:22:47.940Z,23.73
2018-10-11T00:25:15.287Z,25.37
2018-10-11T00:27:42.666Z,26.10
2018-10-11T00:30:10.015Z,23.10
2018-10-11T00:32:37.404Z,22.80
2018-10-11T00:35:04.848Z,26.13
2018-10-11T00:37:32.329Z,22.27
2018-10-11T00:39:59.665Z,22.67
2018-10-11T00:42:27.097Z,22.40
2018-10-11T00:44:54.476Z,25.40
2018-10-11T00:47:21.833Z,23.80
2018-10-11T00:49:49.217Z,23.70
2018-10-11T00:52:16.596Z,23.43
2018-10-11T00:54:43.929Z,24.83
2018-10-11T00:57:11.284Z,23.03
2018-10-11T00:59:38.638Z,23.97
2018-10-11T01:02:06.143Z,23.50
2018-10-11T01:04:33.522Z,26.93
2018-10-11T01:07:01.033Z,27.03
2018-10-11T01:09:28.452Z,23.43
2018-10-11T01:11:55.776Z,22.60
2018-10-11T01:14:23.172Z,23.73
2018-10-11T01:16:50.551Z,23.23
2018-10-11T01:19:17.983Z,23.73
2018-10-11T01:21:45.365Z,22.73
2018-10-11T01:24:12.696Z,23.00
2018-10-11T01:26:40.082Z,22.77
2018-10-11T01:29:07.413Z,21.57
2018-10-11T01:31:34.757Z,22.23
2018-10-11T01:34:02.089Z,22.40
2018-10-11T01:36:29.424Z,20.13
2018-10-11T01:38:56.785Z,18.60
2018-10-11T01:41:24.150Z,20.73
2018-10-11T01:43:51.809Z,24.27
2018-10-11T01:46:19.149Z,22.03
2018-10-11T01:48:46.548Z,20.23
2018-10-11T01:51:13.928Z,19.13
2018-10-11T01:53:41.320Z,18.43
2018-10-11T01:56:09.024Z,18.53
2018-10-11T01:58:36.380Z,19.60
2018-10-11T02:01:03.740Z,18.93
2018-10-11T02:03:31.167Z,19.63
2018-10-11T02:05:58.531Z,18.27
2018-10-11T02:08:25.898Z,18.67
2018-10-11T02:10:53.231Z,16.50
2018-10-11T02:13:20.590Z,19.17
2018-10-11T02:15:47.924Z,16.00
2018-10-11T02:18:15.299Z,17.23
2018-10-11T02:20:42.620Z,16.43
2018-10-11T02:23:09.960Z,17.90
2018-10-11T02:25:37.672Z,17.03
2018-10-11T02:28:05.330Z,17.73
2018-10-11T02:30:32.697Z,20.57
2018-10-11T02:33:00.057Z,18.00
2018-10-11T02:35:27.403Z,18.47
2018-10-11T02:37:54.764Z,19.77
2018-10-11T02:40:22.105Z,17.27
2018-10-11T02:42:49.432Z,17.57
2018-10-11T02:45:16.830Z,18.00
2018-10-11T02:47:44.187Z,19.53
2018-10-11T02:50:11.751Z,18.43
2018-10-11T02:52:39.181Z,18.73
2018-10-11T02:55:06.692Z,18.73
2018-10-11T02:57:45.489Z,19.80
2018-10-11T03:00:12.945Z,20.23
2018-10-11T03:02:43.302Z,16.30
2018-10-11T03:05:14.050Z,15.90
2018-10-11T03:07:41.895Z,18.47
2018-10-11T03:10:09.524Z,16.23
2018-10-11T03:12:36.965Z,17.57
2018-10-11T03:15:06.232Z,18.87
2018-10-11T03:17:33.770Z,20.47
2018-10-11T03:20:01.230Z,21.07
2018-10-11T03:22:28.589Z,22.13
2018-10-11T03:24:55.976Z,22.57
2018-10-11T03:27:23.287Z,22.07
2018-10-11T03:29:50.648Z,20.43
2018-10-11T03:32:18.097Z,19.10
2018-10-11T03:34:45.507Z,20.83
2018-10-11T03:37:12.881Z,18.60
2018-10-11T03:39:40.252Z,18.53
2018-10-11T03:42:08.271Z,19.03
2018-10-11T03:44:35.649Z,19.93
2018-10-11T03:47:02.992Z,19.27
2018-10-11T03:49:30.337Z,19.93
2018-10-11T03:51:57.748Z,18.57
2018-10-11T03:54:25.287Z,20.43
2018-10-11T03:56:52.669Z,20.10
2018-10-11T03:59:20.089Z,18.87
2018-10-11T04:01:47.548Z,19.60
2018-10-11T04:04:14.871Z,18.10
2018-10-11T04:06:44.760Z,18.53
2018-10-11T04:09:12.152Z,17.80
2018-10-11T04:11:39.463Z,15.57
2018-10-11T04:14:06.749Z,14.87
2018-10-11T04:16:34.101Z,14.97
2018-10-11T04:19:01.381Z,13.93
2018-10-11T04:21:28.719Z,15.03
2018-10-11T04:23:56.012Z,13.63
2018-10-11T04:26:23.288Z,13.80
2018-10-11T04:28:57.327Z,14.70
2018-10-11T04:31:24.638Z,16.40
2018-10-11T04:33:51.929Z,15.70
2018-10-11T04:36:19.298Z,16.77
2018-10-11T04:38:46.623Z,15.90
2018-10-11T04:41:13.916Z,16.90
2018-10-11T04:43:41.250Z,14.93
2018-10-11T04:46:09.581Z,19.00
2018-10-11T04:48:36.897Z,18.27
2018-10-11T04:51:04.218Z,18.37
2018-10-11T04:53:31.586Z,17.43
2018-10-11T04:55:58.858Z,20.07
2018-10-11T04:58:26.240Z,17.23
2018-10-11T05:00:53.619Z,21.07
2018-10-11T05:03:20.940Z,19.27
2018-10-11T05:05:48.220Z,18.63
2018-10-11T05:08:15.581Z,18.80
2018-10-11T05:10:43.009Z,17.67
2018-10-11T05:13:10.360Z,20.47
2018-10-11T05:15:38.288Z,17.57
2018-10-11T05:18:06.352Z,17.90
2018-10-11T05:20:33.665Z,17.40
2018-10-11T05:23:00.988Z,18.33
2018-10-11T05:25:28.289Z,19.27
2018-10-11T05:27:55.588Z,17.50
2018-10-11T05:30:22.873Z,17.60
2018-10-11T05:32:50.274Z,17.63
2018-10-11T05:35:17.569Z,18.77
2018-10-11T05:37:44.880Z,18.00
2018-10-11T05:40:12.185Z,16.93
2018-10-11T05:42:39.586Z,16.23
2018-10-11T05:45:09.781Z,17.17
2018-10-11T05:47:37.159Z,18.33
2018-10-11T05:50:04.575Z,18.53
2018-10-11T05:52:31.871Z,17.00
2018-10-11T05:54:59.201Z,17.50
2018-10-11T05:57:26.777Z,16.77
2018-10-11T05:59:54.157Z,17.43
2018-10-11T06:02:21.481Z,17.30
2018-10-11T06:04:48.797Z,17.53
2018-10-11T06:07:16.354Z,16.80
2018-10-11T06:09:43.751Z,17.30
2018-10-11T06:12:11.161Z,18.80
2018-10-11T06:14:38.520Z,17.60
2018-10-11T06:17:06.002Z,19.70
2018-10-11T06:19:33.329Z,17.60
2018-10-11T06:22:00.657Z,17.33
2018-10-11T06:24:28.001Z,15.73
2018-10-11T06:26:55.316Z,15.57
2018-10-11T06:29:22.703Z,17.30
2018-10-11T06:31:50.129Z,17.17
2018-10-11T06:34:17.530Z,16.67
2018-10-11T06:36:44.929Z,15.93
2018-10-11T06:39:12.369Z,13.43
2018-10-11T06:41:39.762Z,13.40
2018-10-11T06:44:07.868Z,16.00
2018-10-11T06:46:35.213Z,13.90
2018-10-11T06:49:02.618Z,12.13
2018-10-11T06:51:30.034Z,10.47
2018-10-11T06:53:57.397Z,11.27
2018-10-11T06:56:24.701Z,13.18
2018-10-11T06:58:52.377Z,10.50
2018-10-11T07:01:19.698Z,10.33
2018-10-11T07:03:46.989Z,11.15
2018-10-11T07:06:14.310Z,10.20
2018-10-11T07:08:41.628Z,10.23
2018-10-11T07:11:08.950Z,14.03
2018-10-11T07:13:36.231Z,11.25
2018-10-11T07:16:03.785Z,12.40
2018-10-11T07:18:31.048Z,10.55
2018-10-11T07:20:58.368Z,9.35
2018-10-11T07:23:25.669Z,10.38
2018-10-11T07:25:53.036Z,10.60
2018-10-11T07:28:20.317Z,9.70
2018-10-11T07:30:47.682Z,11.43
2018-10-11T07:33:14.951Z,10.60
2018-10-11T07:35:42.259Z,10.55
2018-10-11T07:38:09.577Z,10.63
2018-10-11T07:40:36.943Z,11.68
2018-10-11T07:43:04.157Z,10.13
2018-10-11T07:45:31.457Z,12.73
2018-10-11T07:47:58.735Z,9.60
2018-10-11T07:50:26.165Z,9.50
2018-10-11T07:52:53.605Z,9.65
2018-10-11T07:55:20.833Z,9.53
2018-10-11T07:57:48.117Z,9.88
2018-10-11T08:00:15.402Z,8.98
2018-10-11T08:02:43.415Z,9.78
2018-10-11T08:05:10.753Z,8.70
2018-10-11T08:07:38.356Z,9.10
2018-10-11T08:10:06.173Z,9.53
2018-10-11T08:12:33.481Z,8.70
2018-10-11T08:15:00.758Z,8.48
2018-10-11T08:17:28.479Z,9.20
2018-10-11T08:19:55.472Z,9.10
2018-10-11T08:22:22.722Z,8.60
2018-10-11T08:24:50.091Z,10.60
2018-10-11T08:27:17.673Z,10.85
2018-10-11T08:29:44.898Z,8.50
2018-10-11T08:32:12.290Z,7.95
2018-10-11T08:34:39.693Z,9.93
2018-10-11T08:37:07.085Z,12.18
2018-10-11T08:39:34.374Z,7.70
2018-10-11T08:42:01.685Z,7.30
2018-10-11T08:44:28.953Z,9.43
2018-10-11T08:46:56.297Z,7.95
2018-10-11T08:49:23.609Z,7.90
2018-10-11T08:51:50.893Z,7.92
2018-10-11T08:54:23.981Z,7.72
2018-10-11T08:56:51.383Z,7.35
2018-10-11T08:59:18.763Z,7.28
2018-10-11T09:01:45.949Z,8.30
2018-10-11T09:04:13.293Z,7.62
2018-10-11T09:06:40.544Z,7.67
2018-10-11T09:09:08.696Z,8.58
2018-10-11T09:11:36.120Z,7.20
2018-10-11T09:14:03.474Z,7.70
2018-10-11T09:16:30.753Z,7.33
2018-10-11T09:18:58.074Z,6.60
2018-10-11T09:21:25.335Z,6.87
2018-10-11T09:23:52.625Z,6.47
2018-10-11T09:26:19.909Z,6.80
2018-10-11T09:28:47.233Z,7.40
2018-10-11T09:31:14.559Z,6.78
2018-10-11T09:33:41.906Z,6.45
2018-10-11T09:36:11.281Z,6.10
2018-10-11T09:38:38.573Z,6.25
2018-10-11T09:41:06.005Z,6.40
2018-10-11T09:43:33.357Z,6.15
2018-10-11T09:46:00.633Z,6.72
2018-10-11T09:48:27.911Z,6.03
2018-10-11T09:50:55.473Z,5.45
2018-10-11T09:53:22.769Z,5.85
2018-10-11T09:55:50.059Z,5.80
2018-10-11T09:58:17.353Z,5.87
2018-10-11T10:00:50.409Z,6.70
2018-10-11T10:03:17.777Z,5.90
2018-10-11T10:05:45.091Z,6.50
2018-10-11T10:08:12.429Z,8.33
2018-10-11T10:10:39.704Z,5.67
2018-10-11T10:13:07.012Z,5.25
2018-10-11T10:15:34.385Z,7.10
2018-10-11T10:18:01.641Z,5.53
2018-10-11T10:20:28.996Z,5.62
2018-10-11T10:22:56.271Z,5.35
2018-10-11T10:25:23.571Z,4.83
2018-10-11T10:27:50.877Z,5.05
2018-10-11T10:30:23.782Z,5.05
2018-10-11T10:32:51.084Z,6.03
2018-10-11T10:35:18.393Z,5.10
2018-10-11T10:37:45.695Z,7.17
2018-10-11T10:40:13.012Z,7.70
2018-10-11T10:42:40.327Z,4.70
2018-10-11T10:45:07.688Z,4.62
2018-10-11T10:47:34.993Z,4.58
2018-10-11T10:50:02.311Z,6.03
2018-10-11T10:52:29.738Z,4.60
2018-10-11T10:54:57.031Z,4.30
2018-10-11T10:57:24.357Z,4.35
2018-10-11T10:59:51.620Z,5.40
2018-10-11T11:02:18.872Z,4.25
2018-10-11T11:04:46.108Z,6.28
2018-10-11T11:07:13.385Z,4.37
2018-10-11T11:09:41.475Z,4.12
2018-10-11T11:12:08.741Z,5.90
2018-10-11T11:14:35.960Z,5.55
2018-10-11T11:17:03.247Z,4.75
2018-10-11T11:19:30.475Z,4.53
2018-10-11T11:21:57.823Z,4.35
2018-10-11T11:24:25.076Z,5.15
2018-10-11T11:26:52.361Z,5.22
2018-10-11T11:29:19.612Z,4.50
2018-10-11T11:31:46.860Z,5.90
2018-10-11T11:34:14.093Z,5.50
2018-10-11T11:36:41.339Z,5.87
2018-10-11T11:39:09.035Z,7.15
2018-10-11T11:41:36.328Z,6.42
2018-10-11T11:44:03.596Z,6.80
2018-10-11T11:46:30.824Z,7.78
2018-10-11T11:48:58.092Z,7.60
2018-10-11T11:51:25.316Z,8.45
2018-10-11T11:53:52.565Z,6.70
2018-10-11T11:56:19.822Z,6.95
2018-10-11T11:58:47.073Z,6.83
2018-10-11T12:01:14.314Z,7.83
2018-10-11T12:03:41.547Z,6.33
2018-10-11T12:06:09.392Z,6.70
2018-10-11T12:08:37.407Z,6.35
2018-10-11T12:11:04.747Z,7.50
2018-10-11T12:13:31.959Z,7.28
2018-10-11T12:15:59.206Z,6.20
2018-10-11T12:18:26.443Z,5.83
2018-10-11T12:20:53.687Z,5.55
2018-10-11T12:23:20.898Z,5.97
2018-10-11T12:25:48.116Z,5.00
2018-10-11T12:28:15.410Z,8.43
2018-10-11T12:30:42.660Z,8.95
2018-10-11T12:33:09.919Z,4.75
2018-10-11T12:35:39.300Z,4.42
2018-10-11T12:38:06.567Z,3.60
2018-10-11T12:40:33.811Z,5.20
2018-10-11T12:43:01.045Z,4.00
2018-10-11T12:45:28.295Z,4.55
2018-10-11T12:47:55.552Z,3.50
2018-10-11T12:50:22.832Z,5.03
2018-10-11T12:52:50.098Z,3.72
2018-10-11T12:55:17.679Z,3.30
2018-10-11T12:57:44.887Z,3.85
2018-10-11T13:00:13.705Z,3.45
2018-10-11T13:02:41.083Z,3.58
2018-10-11T13:05:08.303Z,3.12
2018-10-11T13:07:35.600Z,3.12
2018-10-11T13:10:03.091Z,3.35
2018-10-11T13:12:30.379Z,4.95
2018-10-11T13:14:57.636Z,5.40
2018-10-11T13:17:24.987Z,3.72
2018-10-11T13:19:52.252Z,4.15
2018-10-11T13:22:19.596Z,3.50
2018-10-11T13:24:48.867Z,4.37
2018-10-11T13:27:14.236Z,3.40
2018-10-11T13:29:41.490Z,3.30
2018-10-11T13:32:08.740Z,3.35
2018-10-11T13:34:36.040Z,3.27
2018-10-11T13:37:03.259Z,4.55
2018-10-11T13:39:30.532Z,4.22
2018-10-11T13:41:57.764Z,3.22
2018-10-11T13:44:25.029Z,3.30
2018-10-11T13:46:52.265Z,3.10
2018-10-11T13:49:19.494Z,3.77
2018-10-11T13:51:46.707Z,2.77
2018-10-11T13:54:16.331Z,2.83
2018-10-11T13:56:43.604Z,3.22
2018-10-11T13:59:14.267Z,3.22
2018-10-11T14:01:38.118Z,3.75
2018-10-11T14:04:06.024Z,3.40
2018-10-11T14:06:33.268Z,3.10
2018-10-11T14:09:00.491Z,3.80
2018-10-11T14:11:27.732Z,4.58
2018-10-11T14:13:55.391Z,3.47
2018-10-11T14:16:22.658Z,3.40
2018-10-11T14:18:49.944Z,4.05
2018-10-11T14:21:17.283Z,5.85
2018-10-11T14:23:44.588Z,4.55
2018-10-11T14:26:11.821Z,3.58
2018-10-11T14:28:39.129Z,4.03
2018-10-11T14:31:06.419Z,4.87
2018-10-11T14:33:33.685Z,3.52
2018-10-11T14:36:00.968Z,3.83
2018-10-11T14:38:28.220Z,3.42
2018-10-11T14:40:55.465Z,3.62
2018-10-11T14:43:23.110Z,4.22
2018-10-11T14:45:50.324Z,3.35
2018-10-11T14:48:17.604Z,4.20
2018-10-11T14:50:44.863Z,4.15
2018-10-11T14:53:12.116Z,5.15
2018-10-11T14:55:39.364Z,4.50
2018-10-11T14:58:06.604Z,5.70
2018-10-11T15:00:33.900Z,3.95
2018-10-11T15:03:01.235Z,3.40
2018-10-11T15:05:28.447Z,5.62
2018-10-11T15:07:55.859Z,3.60
2018-10-11T15:10:23.197Z,6.12
2018-10-11T15:12:50.428Z,4.37
2018-10-11T15:15:17.702Z,5.15
2018-10-11T15:17:45.040Z,5.47
2018-10-11T15:20:12.263Z,7.15
2018-10-11T15:22:39.553Z,3.98
2018-10-11T15:25:07.247Z,6.40
2018-10-11T15:27:34.575Z,4.53
2018-10-11T15:30:01.831Z,4.60
2018-10-11T15:32:29.068Z,5.70
2018-10-11T15:34:56.366Z,4.62
2018-10-11T15:37:23.620Z,5.95
2018-10-11T15:39:50.880Z,5.22
2018-10-11T15:42:18.204Z,5.33
2018-10-11T15:44:45.559Z,6.12
2018-10-11T15:47:12.836Z,6.92
2018-10-11T15:49:40.105Z,5.80
2018-10-11T15:52:07.888Z,5.83
2018-10-11T15:54:35.113Z,8.03
2018-10-11T15:57:02.421Z,6.72
2018-10-11T15:59:29.688Z,7.92
2018-10-11T16:01:57.044Z,7.75
2018-10-11T16:04:24.315Z,7.35
2018-10-11T16:06:51.588Z,7.35
2018-10-11T16:09:18.921Z,8.50
2018-10-11T16:11:46.210Z,6.72
2018-10-11T16:14:13.416Z,10.55
2018-10-11T16:16:40.705Z,6.75
2018-10-11T16:19:08.005Z,8.53
2018-10-11T16:21:35.249Z,7.87
2018-10-11T16:24:02.636Z,6.80
2018-10-11T16:26:29.973Z,6.58
2018-10-11T16:28:57.496Z,8.63
2018-10-11T16:31:24.778Z,6.42
2018-10-11T16:33:52.026Z,7.10
2018-10-11T16:36:19.420Z,11.30
2018-10-11T16:38:46.647Z,6.83
2018-10-11T16:41:13.909Z,8.18
2018-10-11T16:43:41.173Z,6.55
2018-10-11T16:46:08.456Z,8.33
2018-10-11T16:48:35.738Z,6.80
2018-10-11T16:51:03.007Z,8.48
2018-10-11T16:53:30.580Z,10.08
2018-10-11T16:55:57.834Z,10.20
2018-10-11T16:58:25.096Z,9.50
2018-10-11T17:00:52.359Z,16.20
2018-10-11T17:03:19.919Z,10.98
2018-10-11T17:05:47.258Z,21.70
2018-10-11T17:08:14.515Z,25.95
2018-10-11T17:10:41.849Z,16.65
2018-10-11T17:13:09.251Z,9.55
2018-10-11T17:15:36.508Z,17.32
2018-10-11T17:18:03.828Z,10.65
2018-10-11T17:20:31.090Z,20.82
2018-10-11T17:22:58.348Z,6.97
2018-10-11T17:25:25.587Z,16.10
2018-10-11T17:27:52.815Z,10.23
2018-10-11T17:30:20.062Z,9.03
2018-10-11T17:32:47.319Z,10.32
2018-10-11T17:35:14.611Z,8.88
2018-10-11T17:37:41.795Z,11.40
2018-10-11T17:40:09.383Z,13.08
2018-10-11T17:42:36.600Z,11.85
2018-10-11T17:45:04.011Z,9.75
2018-10-11T17:47:31.247Z,7.72
2018-10-11T17:49:58.490Z,9.55
2018-10-11T17:52:25.763Z,9.20
2018-10-11T17:54:56.100Z,9.90
2018-10-11T17:57:23.568Z,10.60
2018-10-11T17:59:50.803Z,9.68
2018-10-11T18:02:19.141Z,9.88
2018-10-11T18:04:46.375Z,9.40
2018-10-11T18:07:13.999Z,10.48
2018-10-11T18:09:41.384Z,11.70
2018-10-11T18:12:08.637Z,15.43
2018-10-11T18:14:35.888Z,11.75
2018-10-11T18:17:03.123Z,9.58
2018-10-11T18:19:30.387Z,9.08
2018-10-11T18:21:57.639Z,11.33
2018-10-11T18:24:25.356Z,10.00
2018-10-11T18:26:52.620Z,10.18
2018-10-11T18:29:19.896Z,10.30
2018-10-11T18:31:47.127Z,8.20
2018-10-11T18:34:14.532Z,8.50
2018-10-11T18:36:41.773Z,12.68
2018-10-11T18:39:10.311Z,10.25
2018-10-11T18:41:37.612Z,8.50
2018-10-11T18:44:04.962Z,10.58
2018-10-11T18:46:32.432Z,9.33
2018-10-11T18:48:59.711Z,11.18
2018-10-11T18:51:27.022Z,10.08
2018-10-11T18:53:54.423Z,12.37
2018-10-11T18:56:21.728Z,11.53
2018-10-11T18:58:49.064Z,12.33
2018-10-11T19:01:16.608Z,10.65
2018-10-11T19:03:43.980Z,10.72
2018-10-11T19:06:11.372Z,11.65
2018-10-11T19:08:38.690Z,15.28
2018-10-11T19:11:06.121Z,12.15
2018-10-11T19:13:33.423Z,12.88
2018-10-11T19:16:01.772Z,10.00
2018-10-11T19:18:29.030Z,11.95
2018-10-11T19:20:56.374Z,9.53
2018-10-11T19:23:23.770Z,14.78
2018-10-11T19:25:51.160Z,10.05
2018-10-11T19:28:19.177Z,11.43
2018-10-11T19:30:46.587Z,9.00
2018-10-11T19:33:14.237Z,9.80
2018-10-11T19:35:41.533Z,12.13
2018-10-11T19:38:08.928Z,9.90
2018-10-11T19:40:36.354Z,11.03
2018-10-11T19:43:03.671Z,11.20
2018-10-11T19:45:30.996Z,11.25
2018-10-11T19:47:58.423Z,11.30
2018-10-11T19:50:26.649Z,9.78
2018-10-11T19:52:54.092Z,17.12
2018-10-11T19:55:21.611Z,9.48
2018-10-11T19:57:49.230Z,9.95
2018-10-11T20:00:16.914Z,10.60
2018-10-11T20:02:44.365Z,13.70
2018-10-11T20:05:12.874Z,9.70
2018-10-11T20:07:40.403Z,10.60
2018-10-11T20:10:07.779Z,10.85
2018-10-11T20:12:35.091Z,11.85
2018-10-11T20:15:02.525Z,10.63
2018-10-11T20:17:32.511Z,11.48
2018-10-11T20:19:59.879Z,13.03
2018-10-11T20:22:27.303Z,13.58
2018-10-11T20:24:54.551Z,11.35
2018-10-11T20:27:21.889Z,12.70
2018-10-11T20:29:49.184Z,12.33
2018-10-11T20:32:16.510Z,14.10
2018-10-11T20:34:43.772Z,11.50
2018-10-11T20:37:11.048Z,12.35
2018-10-11T20:39:38.337Z,12.63
2018-10-11T20:42:05.731Z,11.78
2018-10-11T20:44:33.032Z,14.07
2018-10-11T20:47:00.360Z,14.20
2018-10-11T20:49:27.624Z,13.05
2018-10-11T20:51:54.880Z,11.40
2018-10-11T20:54:22.199Z,11.88
2018-10-11T20:56:49.528Z,11.12
2018-10-11T20:59:16.803Z,13.45
2018-10-11T21:01:44.115Z,12.10
2018-10-11T21:04:11.455Z,12.05
2018-10-11T21:06:38.736Z,13.98
2018-10-11T21:09:07.549Z,13.40
2018-10-11T21:11:34.805Z,11.33
2018-10-11T21:14:03.429Z,12.35
2018-10-11T21:16:30.830Z,11.57
2018-10-11T21:18:58.100Z,11.22
2018-10-11T21:21:25.324Z,11.83
2018-10-11T21:23:52.653Z,12.70
2018-10-11T21:26:19.981Z,13.18
2018-10-11T21:28:47.210Z,14.65
2018-10-11T21:31:15.835Z,12.18
2018-10-11T21:33:43.288Z,13.68
2018-10-11T21:36:10.573Z,14.07
2018-10-11T21:38:37.888Z,12.82
2018-10-11T21:41:05.504Z,12.80
2018-10-11T21:43:32.815Z,12.75
2018-10-11T21:46:00.238Z,14.58
2018-10-11T21:48:27.808Z,14.18
2018-10-11T21:50:55.239Z,12.53
2018-10-11T21:53:22.497Z,16.73
2018-10-11T21:55:49.785Z,15.10
2018-10-11T21:58:17.544Z,11.88
2018-10-11T22:00:50.621Z,13.13
2018-10-11T22:03:18.048Z,12.98
2018-10-11T22:05:45.284Z,11.48
2018-10-11T22:08:12.535Z,13.80
2018-10-11T22:10:39.944Z,15.28
2018-10-11T22:13:07.175Z,16.30
2018-10-11T22:15:34.423Z,14.93
2018-10-11T22:18:01.648Z,16.20
2018-10-11T22:20:28.896Z,13.80
2018-10-11T22:22:56.204Z,15.93
2018-10-11T22:25:23.798Z,14.50
2018-10-11T22:27:51.220Z,12.85
2018-10-11T22:30:18.531Z,12.05
2018-10-11T22:32:45.843Z,13.15
2018-10-11T22:35:13.187Z,13.08
2018-10-11T22:37:40.515Z,12.78
2018-10-11T22:40:07.784Z,15.35
2018-10-11T22:42:35.148Z,13.60
2018-10-11T22:45:02.484Z,14.40
2018-10-11T22:47:29.751Z,12.75
2018-10-11T22:49:57.022Z,12.75
2018-10-11T22:52:24.268Z,14.55
2018-10-11T22:54:51.525Z,14.65
2018-10-11T22:57:18.756Z,14.47
2018-10-11T22:59:46.035Z,15.03
2018-10-11T23:02:13.308Z,15.55
2018-10-11T23:04:40.554Z,12.65
2018-10-11T23:07:08.379Z,13.15
2018-10-11T23:09:35.632Z,14.13
2018-10-11T23:12:03.728Z,12.80
2018-10-11T23:14:31.015Z,12.93
2018-10-11T23:16:58.592Z,12.00
2018-10-11T23:19:25.854Z,13.13
2018-10-11T23:21:53.164Z,14.80
2018-10-11T23:24:20.415Z,13.55
2018-10-11T23:26:47.661Z,12.45
2018-10-11T23:29:14.924Z,13.48
2018-10-11T23:31:42.191Z,12.43
2018-10-11T23:34:09.455Z,12.45
2018-10-11T23:36:36.687Z,14.07
2018-10-11T23:39:06.749Z,13.35
2018-10-11T23:41:34.029Z,14.47
2018-10-11T23:44:01.292Z,13.40
2018-10-11T23:46:28.523Z,17.07
2018-10-11T23:48:55.791Z,13.32
2018-10-11T23:51:23.072Z,13.08
2018-10-11T23:53:50.328Z,12.73
2018-10-11T23:56:17.595Z,16.12
2018-10-11T23:58:44.883Z,17.30
